Eurika — LYRZ — position and weather

sailwx.info

Track history (hours):
 
Tides and Currents Weather Stations Pressure Air Temp Water Temp Dewpoint Dewpoint Depression Visibility Wind Speed Wind Dir Waves Ship Positions

Eurika

Last reported at 2014-Sep-18 07:33 UTC. Time now 2014-Sep-22 10:14 UTC.
Position N 43°35' E 004°40'.

Length 79 m; draft 3.2 m.

MMSI: 277335000.

Date/timePositionNaut miles runAvg speedWind from/ knotsBaromVisibWave heightAir tempDewpointWater temp
2014-Sep-18 07:33N 43°35' E 004°40'14 4.9
2014-Sep-18 04:33N 43°24' E 004°53'5 5.3
2014-Sep-18 03:34N 43°20' E 004°59'  
2014-Sep-10 15:26N 42°18' E 005°57'9 8.7
2014-Sep-10 14:25N 42°25' E 005°50'58 8.5
2014-Sep-10 07:32N 43°14' E 005°05'8 8.5
2014-Sep-10 06:33N 43°20' E 004°58'7 6.8
2014-Sep-10 05:33N 43°23' E 004°50'1 0.3
2014-Sep-10 01:31N 43°23' E 004°48'0 0.0
2014-Sep-10 00:31N 43°23' E 004°48'  
Track history (hours):
 
Tides and Currents Weather Stations Pressure Air Temp Water Temp Dewpoint Dewpoint Depression Visibility Wind Speed Wind Dir Waves Ship Positions

Eurika

Last reported at 2014-Sep-18 07:33 UTC. Time now 2014-Sep-22 10:14 UTC.
Position N 43°35' E 004°40'.

Length 79 m; draft 3.2 m.

MMSI: 277335000.

Date/timePositionNaut miles runAvg speedWind from/ knotsBaromVisibWave heightAir tempDewpointWater temp
2014-Sep-18 07:33N 43°35' E 004°40'14 4.9
2014-Sep-18 04:33N 43°24' E 004°53'5 5.3
2014-Sep-18 03:34N 43°20' E 004°59'  
2014-Sep-10 15:26N 42°18' E 005°57'9 8.7
2014-Sep-10 14:25N 42°25' E 005°50'58 8.5
2014-Sep-10 07:32N 43°14' E 005°05'8 8.5
2014-Sep-10 06:33N 43°20' E 004°58'7 6.8
2014-Sep-10 05:33N 43°23' E 004°50'1 0.3
2014-Sep-10 01:31N 43°23' E 004°48'0 0.0
2014-Sep-10 00:31N 43°23' E 004°48'  

Dump ship's entire track history